createdAt,value
2017-09-06T00:01:29.570Z,3.33
2017-09-06T00:03:57.082Z,3.60
2017-09-06T00:06:25.515Z,2.57
2017-09-06T00:08:53.018Z,2.57
2017-09-06T00:11:20.514Z,3.00
2017-09-06T00:13:48.038Z,2.93
2017-09-06T00:16:15.522Z,3.60
2017-09-06T00:18:43.031Z,2.93
2017-09-06T00:21:11.382Z,2.83
2017-09-06T00:23:38.888Z,2.73
2017-09-06T00:26:06.378Z,2.70
2017-09-06T00:28:33.887Z,2.80
2017-09-06T00:31:01.368Z,2.40
2017-09-06T00:33:28.859Z,2.67
2017-09-06T00:35:56.335Z,2.33
2017-09-06T00:38:23.850Z,2.50
2017-09-06T00:40:51.327Z,2.40
2017-09-06T00:43:18.833Z,2.43
2017-09-06T00:45:46.318Z,2.20
2017-09-06T00:48:13.824Z,2.27
2017-09-06T00:50:41.314Z,2.37
2017-09-06T00:53:10.751Z,2.40
2017-09-06T00:55:38.243Z,2.33
2017-09-06T00:58:05.750Z,2.30
2017-09-06T01:00:33.259Z,2.33
2017-09-06T01:03:00.733Z,2.80
2017-09-06T01:05:28.242Z,1.70
2017-09-06T01:07:55.731Z,2.17
2017-09-06T01:10:23.259Z,2.13
2017-09-06T01:12:50.742Z,2.80
2017-09-06T01:15:18.238Z,2.23
2017-09-06T01:17:45.726Z,2.23
2017-09-06T01:20:13.230Z,2.47
2017-09-06T01:22:40.736Z,2.10
2017-09-06T01:25:08.253Z,2.40
2017-09-06T01:27:35.743Z,1.80
2017-09-06T01:30:03.250Z,2.30
2017-09-06T01:32:31.694Z,2.00
2017-09-06T01:34:59.197Z,1.93
2017-09-06T01:37:26.723Z,2.27
2017-09-06T01:39:54.226Z,2.00
2017-09-06T01:42:21.709Z,2.10
2017-09-06T01:44:49.203Z,2.20
2017-09-06T01:47:16.695Z,1.80
2017-09-06T01:49:44.213Z,2.33
2017-09-06T01:52:11.698Z,2.07
2017-09-06T01:54:39.207Z,1.60
2017-09-06T01:57:06.684Z,1.67
2017-09-06T01:59:34.186Z,1.90
2017-09-06T02:02:01.657Z,2.17
2017-09-06T02:04:29.156Z,2.07
2017-09-06T02:06:56.638Z,2.17
2017-09-06T02:09:25.100Z,1.70
2017-09-06T02:11:53.534Z,1.87
2017-09-06T02:14:21.050Z,1.70
2017-09-06T02:16:48.538Z,2.43
2017-09-06T02:19:16.042Z,2.57
2017-09-06T02:21:43.524Z,1.73
2017-09-06T02:24:11.039Z,1.63
2017-09-06T02:26:38.526Z,1.63
2017-09-06T02:29:06.022Z,2.10
2017-09-06T02:31:36.992Z,1.87
2017-09-06T02:34:04.515Z,1.80
2017-09-06T02:36:32.016Z,2.23
2017-09-06T02:38:59.534Z,1.60
2017-09-06T02:41:27.028Z,2.10
2017-09-06T02:43:56.448Z,1.60
2017-09-06T02:46:23.926Z,1.70
2017-09-06T02:48:51.419Z,1.53
2017-09-06T02:51:18.906Z,1.90
2017-09-06T02:53:46.426Z,1.47
2017-09-06T02:56:14.849Z,1.77
2017-09-06T02:58:42.346Z,1.40
2017-09-06T03:01:09.877Z,1.47
2017-09-06T03:03:37.364Z,1.40
2017-09-06T03:06:04.875Z,1.50
2017-09-06T03:08:32.353Z,1.70
2017-09-06T03:10:59.862Z,1.50
2017-09-06T03:13:27.340Z,1.47
2017-09-06T03:15:54.855Z,1.67
2017-09-06T03:18:22.350Z,1.47
2017-09-06T03:20:49.826Z,1.63
2017-09-06T03:23:17.352Z,1.70
2017-09-06T03:25:44.843Z,1.53
2017-09-06T03:28:12.350Z,1.40
2017-09-06T03:30:40.723Z,1.60
2017-09-06T03:33:08.228Z,1.57
2017-09-06T03:35:35.711Z,1.60
2017-09-06T03:38:03.936Z,1.73
2017-09-06T03:40:31.438Z,1.80
2017-09-06T03:42:58.931Z,1.40
2017-09-06T03:45:28.370Z,1.33
2017-09-06T03:47:55.882Z,1.57
2017-09-06T03:50:23.389Z,1.60
2017-09-06T03:52:50.862Z,1.33
2017-09-06T03:55:18.350Z,1.40
2017-09-06T03:57:45.841Z,1.93
2017-09-06T04:00:13.351Z,1.83
2017-09-06T04:02:40.875Z,1.57
2017-09-06T04:05:08.363Z,1.87
2017-09-06T04:07:36.506Z,1.50
2017-09-06T04:10:03.997Z,1.93
2017-09-06T04:12:31.486Z,1.43
2017-09-06T04:14:59.002Z,1.50
2017-09-06T04:17:26.488Z,1.50
2017-09-06T04:19:53.992Z,1.33
2017-09-06T04:22:21.500Z,1.60
2017-09-06T04:24:48.999Z,1.30
2017-09-06T04:27:16.530Z,1.40
2017-09-06T04:29:44.037Z,1.60
2017-09-06T04:32:11.595Z,1.00
2017-09-06T04:34:40.093Z,1.43
2017-09-06T04:37:07.628Z,1.50
2017-09-06T04:39:35.122Z,1.50
2017-09-06T04:42:02.622Z,1.27
2017-09-06T04:44:30.107Z,1.33
2017-09-06T04:46:58.559Z,1.23
2017-09-06T04:49:26.071Z,1.20
2017-09-06T04:51:53.551Z,1.80
2017-09-06T04:54:21.055Z,1.30
2017-09-06T04:56:48.558Z,1.37
2017-09-06T04:59:16.034Z,1.40
2017-09-06T05:01:43.518Z,1.10
2017-09-06T05:04:10.998Z,1.67
2017-09-06T05:06:38.517Z,1.90
2017-09-06T05:09:06.003Z,1.90
2017-09-06T05:11:35.474Z,2.73
2017-09-06T05:14:02.946Z,1.77
2017-09-06T05:16:30.463Z,1.70
2017-09-06T05:18:57.942Z,1.90
2017-09-06T05:21:26.420Z,1.80
2017-09-06T05:23:54.864Z,2.10
2017-09-06T05:26:22.382Z,1.60
2017-09-06T05:28:50.162Z,1.90
2017-09-06T05:31:18.270Z,2.03
2017-09-06T05:33:45.754Z,1.90
2017-09-06T05:36:13.243Z,2.03
2017-09-06T05:38:40.717Z,1.70
2017-09-06T05:41:10.187Z,1.90
2017-09-06T05:43:37.685Z,1.93
2017-09-06T05:46:05.186Z,1.80
2017-09-06T05:48:32.666Z,1.70
2017-09-06T05:51:00.741Z,1.90
2017-09-06T05:53:28.218Z,2.40
2017-09-06T05:55:57.683Z,2.03
2017-09-06T05:58:25.157Z,1.80
2017-09-06T06:00:52.664Z,1.50
2017-09-06T06:03:20.145Z,1.80
2017-09-06T06:05:47.634Z,1.83
2017-09-06T06:08:15.120Z,1.97
2017-09-06T06:10:42.598Z,2.50
2017-09-06T06:13:10.123Z,1.73
2017-09-06T06:15:37.630Z,1.40
2017-09-06T06:18:05.127Z,2.03
2017-09-06T06:20:32.599Z,1.97
2017-09-06T06:23:00.097Z,1.50
2017-09-06T06:25:27.583Z,1.83
2017-09-06T06:27:55.112Z,1.80
2017-09-06T06:30:22.599Z,1.87
2017-09-06T06:32:50.102Z,1.90
2017-09-06T06:35:17.641Z,1.97
2017-09-06T06:37:46.642Z,1.80
2017-09-06T06:40:14.134Z,1.70
2017-09-06T06:42:41.626Z,1.53
2017-09-06T06:45:09.099Z,2.30
2017-09-06T06:47:36.595Z,2.07
2017-09-06T06:50:05.050Z,1.60
2017-09-06T06:52:32.579Z,2.10
2017-09-06T06:55:00.128Z,2.00
2017-09-06T06:57:28.028Z,2.10
2017-09-06T06:59:55.527Z,2.30
2017-09-06T07:02:23.086Z,1.97
2017-09-06T07:04:51.865Z,1.73
2017-09-06T07:07:19.402Z,1.50
2017-09-06T07:09:46.907Z,1.50
2017-09-06T07:12:14.480Z,1.80
2017-09-06T07:14:41.959Z,1.90
2017-09-06T07:17:11.399Z,1.53
2017-09-06T07:19:38.882Z,1.37
2017-09-06T07:22:06.424Z,1.30
2017-09-06T07:24:33.907Z,1.10
2017-09-06T07:27:01.421Z,1.50
2017-09-06T07:29:28.944Z,1.20
2017-09-06T07:31:56.543Z,1.43
2017-09-06T07:34:24.058Z,1.33
2017-09-06T07:36:51.531Z,1.10
2017-09-06T07:39:19.050Z,1.10
2017-09-06T07:41:46.574Z,1.50
2017-09-06T07:44:14.055Z,1.33
2017-09-06T07:46:41.547Z,1.30
2017-09-06T07:49:09.034Z,1.07
2017-09-06T07:51:36.534Z,1.00
2017-09-06T07:54:04.039Z,1.10
2017-09-06T07:56:31.539Z,0.93
2017-09-06T07:58:59.956Z,0.97
2017-09-06T08:01:27.480Z,0.83
2017-09-06T08:03:55.972Z,0.97
2017-09-06T08:06:23.483Z,1.23
2017-09-06T08:08:50.983Z,0.80
2017-09-06T08:11:18.490Z,0.90
2017-09-06T08:13:46.869Z,0.80
2017-09-06T08:16:14.398Z,1.03
2017-09-06T08:18:41.906Z,0.70
2017-09-06T08:21:09.423Z,0.90
2017-09-06T08:23:37.935Z,1.10
2017-09-06T08:26:07.436Z,0.73
2017-09-06T08:28:35.844Z,1.17
2017-09-06T08:31:03.358Z,0.70
2017-09-06T08:33:35.407Z,1.27
2017-09-06T08:36:03.852Z,1.00
2017-09-06T08:38:31.364Z,0.80
2017-09-06T08:40:58.983Z,0.80
2017-09-06T08:43:26.543Z,0.80
2017-09-06T08:45:55.744Z,1.00
2017-09-06T08:48:23.418Z,1.10
2017-09-06T08:50:50.959Z,1.37
2017-09-06T08:53:18.453Z,1.00
2017-09-06T08:55:46.839Z,1.00
2017-09-06T08:58:14.339Z,1.00
2017-09-06T09:00:41.843Z,1.00
2017-09-06T09:03:09.374Z,1.07
2017-09-06T09:05:36.894Z,0.80
2017-09-06T09:08:04.374Z,1.40
2017-09-06T09:10:31.878Z,1.30
2017-09-06T09:12:59.393Z,1.00
2017-09-06T09:15:26.908Z,0.90
2017-09-06T09:17:54.397Z,0.90
2017-09-06T09:20:21.910Z,1.00
2017-09-06T09:22:49.423Z,0.77
2017-09-06T09:25:16.953Z,1.10
2017-09-06T09:27:45.370Z,0.87
2017-09-06T09:30:12.882Z,0.90
2017-09-06T09:32:40.395Z,1.00
2017-09-06T09:35:07.899Z,0.93
2017-09-06T09:37:35.399Z,1.10
2017-09-06T09:40:02.902Z,0.97
2017-09-06T09:42:30.395Z,1.23
2017-09-06T09:44:57.902Z,1.00
2017-09-06T09:47:26.348Z,1.00
2017-09-06T09:49:53.838Z,1.00
2017-09-06T09:52:21.343Z,1.20
2017-09-06T09:54:48.818Z,0.93
2017-09-06T09:57:16.341Z,1.03
2017-09-06T09:59:43.839Z,0.70
2017-09-06T10:02:11.325Z,0.80
2017-09-06T10:04:39.750Z,0.93
2017-09-06T10:07:07.275Z,0.80
2017-09-06T10:09:35.706Z,0.97
2017-09-06T10:12:03.211Z,0.70
2017-09-06T10:14:30.711Z,0.90
2017-09-06T10:16:59.130Z,1.10
2017-09-06T10:19:26.627Z,1.10
2017-09-06T10:21:54.114Z,1.00
2017-09-06T10:24:21.634Z,1.67
2017-09-06T10:26:50.267Z,0.97
2017-09-06T10:29:17.786Z,1.20
2017-09-06T10:31:45.286Z,1.20
2017-09-06T10:34:14.774Z,0.87
2017-09-06T10:36:43.179Z,1.10
2017-09-06T10:39:10.884Z,1.87
2017-09-06T10:41:38.358Z,1.77
2017-09-06T10:44:05.854Z,1.27
2017-09-06T10:46:34.302Z,1.47
2017-09-06T10:49:02.642Z,1.80
2017-09-06T10:51:30.120Z,2.10
2017-09-06T10:53:57.635Z,1.27
2017-09-06T10:56:25.150Z,1.37
2017-09-06T10:58:52.650Z,1.20
2017-09-06T11:01:20.146Z,1.47
2017-09-06T11:03:49.558Z,1.70
2017-09-06T11:06:17.058Z,1.77
2017-09-06T11:08:45.477Z,1.60
2017-09-06T11:11:12.986Z,1.20
2017-09-06T11:13:40.487Z,1.83
2017-09-06T11:16:08.493Z,1.50
2017-09-06T11:18:35.976Z,1.73
2017-09-06T11:21:03.511Z,1.80
2017-09-06T11:23:30.995Z,1.67
2017-09-06T11:25:58.511Z,1.90
2017-09-06T11:28:26.007Z,1.50
2017-09-06T11:30:54.401Z,1.70
2017-09-06T11:33:21.938Z,1.50
2017-09-06T11:35:49.407Z,1.97
2017-09-06T11:38:16.943Z,1.73
2017-09-06T11:40:44.455Z,1.23
2017-09-06T11:43:12.932Z,1.70
2017-09-06T11:45:40.466Z,1.70
2017-09-06T11:48:07.963Z,1.70
2017-09-06T11:50:35.462Z,1.70
2017-09-06T11:53:02.977Z,1.80
2017-09-06T11:55:30.499Z,1.77
2017-09-06T11:57:58.048Z,1.57
2017-09-06T12:00:25.534Z,1.53
2017-09-06T12:02:53.075Z,1.60
2017-09-06T12:05:21.150Z,1.57
2017-09-06T12:07:50.510Z,1.80
2017-09-06T12:10:18.849Z,2.70
2017-09-06T12:12:47.238Z,1.63
2017-09-06T12:15:18.130Z,1.90
2017-09-06T12:17:45.630Z,1.33
2017-09-06T12:20:13.106Z,1.20
2017-09-06T12:22:40.652Z,1.87
2017-09-06T12:25:08.152Z,1.80
2017-09-06T12:27:35.642Z,1.57
2017-09-06T12:30:03.191Z,1.57
2017-09-06T12:32:30.710Z,1.50
2017-09-06T12:34:58.236Z,1.40
2017-09-06T12:37:26.410Z,1.67
2017-09-06T12:39:53.930Z,1.50
2017-09-06T12:42:21.435Z,1.57
2017-09-06T12:44:49.911Z,1.83
2017-09-06T12:47:17.457Z,1.50
2017-09-06T12:49:44.936Z,1.80
2017-09-06T12:52:12.456Z,1.50
2017-09-06T12:54:39.962Z,1.50
2017-09-06T12:57:07.474Z,1.30
2017-09-06T12:59:34.959Z,1.97
2017-09-06T13:02:04.406Z,1.77
2017-09-06T13:04:31.907Z,3.03
2017-09-06T13:06:59.452Z,2.03
2017-09-06T13:09:26.946Z,2.00
2017-09-06T13:11:54.433Z,2.07
2017-09-06T13:14:21.926Z,2.43
2017-09-06T13:16:49.415Z,2.73
2017-09-06T13:19:16.901Z,2.30
2017-09-06T13:21:45.314Z,2.03
2017-09-06T13:24:12.816Z,2.70
2017-09-06T13:26:40.316Z,2.87
2017-09-06T13:29:07.810Z,2.43
2017-09-06T13:31:35.316Z,1.77
2017-09-06T13:34:02.810Z,2.33
2017-09-06T13:36:30.328Z,2.23
2017-09-06T13:38:57.830Z,2.27
2017-09-06T13:41:25.358Z,2.33
2017-09-06T13:43:53.891Z,2.47
2017-09-06T13:46:22.346Z,1.87
2017-09-06T13:48:49.843Z,2.23
2017-09-06T13:51:17.344Z,1.80
2017-09-06T13:53:44.814Z,2.20
2017-09-06T13:56:12.323Z,2.13
2017-09-06T13:58:41.051Z,2.00
2017-09-06T14:01:10.480Z,1.73
2017-09-06T14:03:37.975Z,2.40
2017-09-06T14:06:05.474Z,1.60
2017-09-06T14:08:32.957Z,3.03
2017-09-06T14:11:00.479Z,2.30
2017-09-06T14:13:27.960Z,1.80
2017-09-06T14:15:55.456Z,2.47
2017-09-06T14:18:23.894Z,2.73
2017-09-06T14:20:51.398Z,2.13
2017-09-06T14:23:18.889Z,2.50
2017-09-06T14:25:46.393Z,2.53
2017-09-06T14:28:14.804Z,1.93
2017-09-06T14:30:43.461Z,1.97
2017-09-06T14:33:10.972Z,1.77
2017-09-06T14:35:38.450Z,2.00
2017-09-06T14:38:07.902Z,2.30
2017-09-06T14:40:35.452Z,1.63
2017-09-06T14:43:02.970Z,2.70
2017-09-06T14:45:30.466Z,2.93
2017-09-06T14:47:57.979Z,2.00
2017-09-06T14:50:25.501Z,1.43
2017-09-06T14:52:52.999Z,2.07
2017-09-06T14:55:20.554Z,2.00
2017-09-06T14:57:48.047Z,1.90
2017-09-06T15:00:15.619Z,1.80
2017-09-06T15:02:43.122Z,2.07
2017-09-06T15:05:10.603Z,2.10
2017-09-06T15:07:39.154Z,2.60
2017-09-06T15:10:06.642Z,1.47
2017-09-06T15:12:34.170Z,1.87
2017-09-06T15:15:01.670Z,1.60
2017-09-06T15:17:29.173Z,1.90
2017-09-06T15:19:56.684Z,1.60
2017-09-06T15:22:24.180Z,1.60
2017-09-06T15:24:51.693Z,1.90
2017-09-06T15:27:20.084Z,2.20
2017-09-06T15:29:47.618Z,1.90
2017-09-06T15:32:15.112Z,1.30
2017-09-06T15:34:43.617Z,1.90
2017-09-06T15:37:13.087Z,2.57
2017-09-06T15:39:40.587Z,2.20
2017-09-06T15:42:08.090Z,2.50
2017-09-06T15:44:36.646Z,1.23
2017-09-06T15:47:04.145Z,1.83
2017-09-06T15:49:32.577Z,1.50
2017-09-06T15:52:00.066Z,2.20
2017-09-06T15:54:27.587Z,2.27
2017-09-06T15:56:55.148Z,2.00
2017-09-06T15:59:22.674Z,2.20
2017-09-06T16:01:51.037Z,2.03
2017-09-06T16:04:20.066Z,2.10
2017-09-06T16:06:47.571Z,1.77
2017-09-06T16:09:15.862Z,2.20
2017-09-06T16:11:43.429Z,2.00
2017-09-06T16:14:12.858Z,1.80
2017-09-06T16:16:40.370Z,2.20
2017-09-06T16:19:07.943Z,1.60
2017-09-06T16:21:35.525Z,1.90
2017-09-06T16:24:03.074Z,1.67
2017-09-06T16:26:30.592Z,2.10
2017-09-06T16:28:58.187Z,1.90
2017-09-06T16:31:25.721Z,1.60
2017-09-06T16:33:53.232Z,1.90
2017-09-06T16:36:20.706Z,2.17
2017-09-06T16:38:48.211Z,2.70
2017-09-06T16:41:15.683Z,2.40
2017-09-06T16:43:43.183Z,2.50
2017-09-06T16:46:10.687Z,2.43
2017-09-06T16:48:38.194Z,2.30
2017-09-06T16:51:05.668Z,1.97
2017-09-06T16:53:33.158Z,2.27
2017-09-06T16:56:00.664Z,2.20
2017-09-06T16:58:28.147Z,1.80
2017-09-06T17:00:55.646Z,1.90
2017-09-06T17:03:23.133Z,2.13
2017-09-06T17:05:50.612Z,2.77
2017-09-06T17:08:18.158Z,2.57
2017-09-06T17:10:45.656Z,2.23
2017-09-06T17:13:13.166Z,2.13
2017-09-06T17:15:40.667Z,1.80
2017-09-06T17:18:08.167Z,2.37
2017-09-06T17:20:35.664Z,2.43
2017-09-06T17:23:03.168Z,3.30
2017-09-06T17:25:30.674Z,2.43
2017-09-06T17:27:58.200Z,1.90
2017-09-06T17:30:25.739Z,2.83
2017-09-06T17:32:53.260Z,2.40
2017-09-06T17:35:20.750Z,2.60
2017-09-06T17:37:48.252Z,2.33
2017-09-06T17:40:15.772Z,2.20
2017-09-06T17:42:43.277Z,1.97
2017-09-06T17:45:11.264Z,2.77
2017-09-06T17:47:38.774Z,2.50
2017-09-06T17:50:06.255Z,2.10
2017-09-06T17:52:34.735Z,2.90
2017-09-06T17:55:02.263Z,2.83
2017-09-06T17:57:29.798Z,2.33
2017-09-06T17:59:58.239Z,2.47
2017-09-06T18:02:25.747Z,2.20
2017-09-06T18:04:53.227Z,2.10
2017-09-06T18:07:20.730Z,2.00
2017-09-06T18:09:48.246Z,2.60
2017-09-06T18:12:15.757Z,2.20
2017-09-06T18:14:43.240Z,2.63
2017-09-06T18:17:11.355Z,1.77
2017-09-06T18:19:38.899Z,2.17
2017-09-06T18:22:06.425Z,1.80
2017-09-06T18:24:33.950Z,2.30
2017-09-06T18:27:01.460Z,2.50
2017-09-06T18:29:28.953Z,2.20
2017-09-06T18:31:56.466Z,2.60
2017-09-06T18:34:24.948Z,1.60
2017-09-06T18:36:52.430Z,2.20
2017-09-06T18:39:19.956Z,3.30
2017-09-06T18:41:47.477Z,2.40
2017-09-06T18:44:14.993Z,1.90
2017-09-06T18:46:42.478Z,2.13
2017-09-06T18:49:10.027Z,2.40
2017-09-06T18:51:39.311Z,2.50
2017-09-06T18:54:06.800Z,3.10
2017-09-06T18:56:34.315Z,2.80
2017-09-06T18:59:02.766Z,2.93
2017-09-06T19:01:31.200Z,3.50
2017-09-06T19:03:58.710Z,2.73
2017-09-06T19:06:26.210Z,2.73
2017-09-06T19:08:58.272Z,2.90
2017-09-06T19:11:26.686Z,2.70
2017-09-06T19:13:55.189Z,3.27
2017-09-06T19:16:22.739Z,3.00
2017-09-06T19:18:50.240Z,2.67
2017-09-06T19:21:17.731Z,2.63
2017-09-06T19:23:47.174Z,2.57
2017-09-06T19:26:14.662Z,2.93
2017-09-06T19:28:42.175Z,2.87
2017-09-06T19:31:09.660Z,2.70
2017-09-06T19:33:37.234Z,2.73
2017-09-06T19:36:04.727Z,2.50
2017-09-06T19:38:32.240Z,3.40
2017-09-06T19:40:59.771Z,2.70
2017-09-06T19:43:27.250Z,2.10
2017-09-06T19:45:56.706Z,2.90
2017-09-06T19:48:24.221Z,3.10
2017-09-06T19:50:51.799Z,3.00
2017-09-06T19:53:19.348Z,2.90
2017-09-06T19:55:46.839Z,2.37
2017-09-06T19:58:14.330Z,2.60
2017-09-06T20:00:41.814Z,2.33
2017-09-06T20:03:09.331Z,2.40
2017-09-06T20:05:36.856Z,4.27
2017-09-06T20:08:04.387Z,2.70
2017-09-06T20:10:32.412Z,2.93
2017-09-06T20:13:01.369Z,2.50
2017-09-06T20:15:28.915Z,3.23
2017-09-06T20:17:56.454Z,2.67
2017-09-06T20:20:34.303Z,2.53
2017-09-06T20:23:03.838Z,2.67
2017-09-06T20:25:31.334Z,2.53
2017-09-06T20:27:58.847Z,3.00
2017-09-06T20:30:26.407Z,3.10
2017-09-06T20:32:53.927Z,3.07
2017-09-06T20:35:23.331Z,2.67
2017-09-06T20:37:50.853Z,2.60
2017-09-06T20:40:18.363Z,3.50
2017-09-06T20:42:45.862Z,3.13
2017-09-06T20:45:13.465Z,2.77
2017-09-06T20:47:40.974Z,4.20
2017-09-06T20:50:08.501Z,3.83
2017-09-06T20:52:35.998Z,2.73
2017-09-06T20:55:03.511Z,3.40
2017-09-06T20:57:31.022Z,2.90
2017-09-06T20:59:58.514Z,3.00
2017-09-06T21:02:26.016Z,3.07
2017-09-06T21:04:53.521Z,3.07
2017-09-06T21:07:21.010Z,3.17
2017-09-06T21:09:49.575Z,3.53
2017-09-06T21:12:17.087Z,3.00
2017-09-06T21:14:44.606Z,2.63
2017-09-06T21:17:13.031Z,3.23
2017-09-06T21:19:40.576Z,4.10
2017-09-06T21:22:09.294Z,3.20
2017-09-06T21:24:36.914Z,3.10
2017-09-06T21:27:04.413Z,2.93
2017-09-06T21:29:31.919Z,2.63
2017-09-06T21:31:59.409Z,3.00
2017-09-06T21:34:26.924Z,3.43
2017-09-06T21:36:54.427Z,2.73
2017-09-06T21:39:22.654Z,3.33
2017-09-06T21:41:50.197Z,3.87
2017-09-06T21:44:19.190Z,2.77
2017-09-06T21:46:49.400Z,3.20
2017-09-06T21:49:16.889Z,3.20
2017-09-06T21:51:45.364Z,3.80
2017-09-06T21:54:12.893Z,3.80
2017-09-06T21:56:41.108Z,3.60
2017-09-06T21:59:08.595Z,2.50
2017-09-06T22:01:36.110Z,3.30
2017-09-06T22:04:05.586Z,3.40
2017-09-06T22:06:33.145Z,3.37
2017-09-06T22:09:00.717Z,4.03
2017-09-06T22:11:33.545Z,3.27
2017-09-06T22:14:05.895Z,3.30
2017-09-06T22:16:33.495Z,4.50
2017-09-06T22:19:01.165Z,3.33
2017-09-06T22:21:29.603Z,3.70
2017-09-06T22:24:05.824Z,2.90
2017-09-06T22:26:35.534Z,4.50
2017-09-06T22:29:11.563Z,3.87
2017-09-06T22:31:39.146Z,4.60
2017-09-06T22:34:06.715Z,2.80
2017-09-06T22:36:35.365Z,3.33
2017-09-06T22:39:03.055Z,3.23
2017-09-06T22:41:31.916Z,2.50
2017-09-06T22:44:00.878Z,3.37
2017-09-06T22:46:29.363Z,4.20
2017-09-06T22:48:59.988Z,3.10
2017-09-06T22:51:28.474Z,3.60
2017-09-06T22:53:57.878Z,2.97
2017-09-06T22:56:25.632Z,2.77
2017-09-06T22:59:03.931Z,3.10
2017-09-06T23:01:33.894Z,3.20
2017-09-06T23:04:01.555Z,3.10
2017-09-06T23:06:29.421Z,3.80
2017-09-06T23:11:35.855Z,3.90
2017-09-06T23:14:03.952Z,3.30
2017-09-06T23:16:31.947Z,3.70
2017-09-06T23:21:40.849Z,3.63
2017-09-06T23:24:08.467Z,4.20
2017-09-06T23:26:36.991Z,3.67
2017-09-06T23:29:12.761Z,2.80
2017-09-06T23:31:41.354Z,3.80
2017-09-06T23:34:10.896Z,3.07
2017-09-06T23:36:38.424Z,3.70
2017-09-06T23:39:05.983Z,3.73
2017-09-06T23:41:36.442Z,3.70
2017-09-06T23:44:06.046Z,3.30
2017-09-06T23:46:34.344Z,3.70
2017-09-06T23:49:02.836Z,3.73
2017-09-06T23:51:36.080Z,3.77
2017-09-06T23:54:04.181Z,3.17
2017-09-06T23:56:31.668Z,4.17
2017-09-06T23:58:59.200Z,3.80
